sensor_id;sensor_type;location;lat;lon;timestamp;temperature;humidity
11387;DHT22;5748;53.102;8.456;2023-11-22T00:01:15;6.80;70.40
11387;DHT22;5748;53.102;8.456;2023-11-22T00:03:42;6.80;70.40
11387;DHT22;5748;53.102;8.456;2023-11-22T00:06:09;6.80;70.30
11387;DHT22;5748;53.102;8.456;2023-11-22T00:08:37;6.80;70.30
11387;DHT22;5748;53.102;8.456;2023-11-22T00:11:04;6.80;70.30
11387;DHT22;5748;53.102;8.456;2023-11-22T00:13:31;6.70;70.10
11387;DHT22;5748;53.102;8.456;2023-11-22T00:15:58;6.70;70.00
11387;DHT22;5748;53.102;8.456;2023-11-22T00:18:26;6.70;70.00
11387;DHT22;5748;53.102;8.456;2023-11-22T00:20:53;6.70;70.00
11387;DHT22;5748;53.102;8.456;2023-11-22T00:23:21;6.70;69.90
11387;DHT22;5748;53.102;8.456;2023-11-22T00:25:52;6.70;70.00
11387;DHT22;5748;53.102;8.456;2023-11-22T00:28:19;6.60;69.90
11387;DHT22;5748;53.102;8.456;2023-11-22T00:30:46;6.60;70.60
11387;DHT22;5748;53.102;8.456;2023-11-22T00:33:13;6.60;69.90
11387;DHT22;5748;53.102;8.456;2023-11-22T00:35:41;6.50;69.80
11387;DHT22;5748;53.102;8.456;2023-11-22T00:38:08;6.50;69.90
11387;DHT22;5748;53.102;8.456;2023-11-22T00:40:35;6.50;70.00
11387;DHT22;5748;53.102;8.456;2023-11-22T00:43:02;6.50;70.00
11387;DHT22;5748;53.102;8.456;2023-11-22T00:45:29;6.40;69.90
11387;DHT22;5748;53.102;8.456;2023-11-22T00:47:56;6.40;70.00
11387;DHT22;5748;53.102;8.456;2023-11-22T00:50:23;6.40;69.90
11387;DHT22;5748;53.102;8.456;2023-11-22T00:52:51;6.40;69.90
11387;DHT22;5748;53.102;8.456;2023-11-22T00:55:19;6.40;69.80
11387;DHT22;5748;53.102;8.456;2023-11-22T00:57:46;6.40;69.70
11387;DHT22;5748;53.102;8.456;2023-11-22T01:00:13;6.30;69.60
11387;DHT22;5748;53.102;8.456;2023-11-22T01:02:41;6.30;69.50
11387;DHT22;5748;53.102;8.456;2023-11-22T01:05:08;6.20;69.40
11387;DHT22;5748;53.102;8.456;2023-11-22T01:07:36;6.20;69.40
11387;DHT22;5748;53.102;8.456;2023-11-22T01:10:06;6.20;69.40
11387;DHT22;5748;53.102;8.456;2023-11-22T01:12:33;6.10;69.50
11387;DHT22;5748;53.102;8.456;2023-11-22T01:15:00;6.10;69.40
11387;DHT22;5748;53.102;8.456;2023-11-22T01:17:27;6.00;69.40
11387;DHT22;5748;53.102;8.456;2023-11-22T01:19:54;6.00;69.40
11387;DHT22;5748;53.102;8.456;2023-11-22T01:22:20;6.00;69.30
11387;DHT22;5748;53.102;8.456;2023-11-22T01:24:47;5.90;69.10
11387;DHT22;5748;53.102;8.456;2023-11-22T01:27:16;5.90;69.10
11387;DHT22;5748;53.102;8.456;2023-11-22T01:29:42;5.90;69.10
11387;DHT22;5748;53.102;8.456;2023-11-22T01:32:09;5.90;69.10
11387;DHT22;5748;53.102;8.456;2023-11-22T01:34:36;5.80;68.90
11387;DHT22;5748;53.102;8.456;2023-11-22T01:37:04;5.80;69.00
11387;DHT22;5748;53.102;8.456;2023-11-22T01:39:31;5.70;68.90
11387;DHT22;5748;53.102;8.456;2023-11-22T01:41:58;5.70;69.00
11387;DHT22;5748;53.102;8.456;2023-11-22T01:44:26;5.70;69.00
11387;DHT22;5748;53.102;8.456;2023-11-22T01:46:53;5.60;68.90
11387;DHT22;5748;53.102;8.456;2023-11-22T01:49:21;5.60;68.90
11387;DHT22;5748;53.102;8.456;2023-11-22T01:51:49;5.50;68.90
11387;DHT22;5748;53.102;8.456;2023-11-22T01:54:18;5.50;68.90
11387;DHT22;5748;53.102;8.456;2023-11-22T01:56:45;5.50;69.00
11387;DHT22;5748;53.102;8.456;2023-11-22T01:59:13;5.40;68.90
11387;DHT22;5748;53.102;8.456;2023-11-22T02:01:42;5.40;69.00
11387;DHT22;5748;53.102;8.456;2023-11-22T02:04:12;5.40;69.00
11387;DHT22;5748;53.102;8.456;2023-11-22T02:06:39;5.30;68.80
11387;DHT22;5748;53.102;8.456;2023-11-22T02:09:06;5.30;68.90
11387;DHT22;5748;53.102;8.456;2023-11-22T02:11:38;5.30;68.90
11387;DHT22;5748;53.102;8.456;2023-11-22T02:14:06;5.30;69.00
11387;DHT22;5748;53.102;8.456;2023-11-22T02:16:34;5.20;69.00
11387;DHT22;5748;53.102;8.456;2023-11-22T02:19:03;5.20;69.20
11387;DHT22;5748;53.102;8.456;2023-11-22T02:21:32;5.20;69.40
11387;DHT22;5748;53.102;8.456;2023-11-22T02:24:00;5.20;69.40
11387;DHT22;5748;53.102;8.456;2023-11-22T02:26:27;5.10;69.30
11387;DHT22;5748;53.102;8.456;2023-11-22T02:28:56;5.10;69.30
11387;DHT22;5748;53.102;8.456;2023-11-22T02:31:24;5.10;69.30
11387;DHT22;5748;53.102;8.456;2023-11-22T02:33:53;5.10;69.30
11387;DHT22;5748;53.102;8.456;2023-11-22T02:36:20;5.10;69.20
11387;DHT22;5748;53.102;8.456;2023-11-22T02:38:50;5.10;69.30
11387;DHT22;5748;53.102;8.456;2023-11-22T02:41:18;5.10;69.30
11387;DHT22;5748;53.102;8.456;2023-11-22T02:43:45;5.10;69.20
11387;DHT22;5748;53.102;8.456;2023-11-22T02:46:12;5.10;69.30
11387;DHT22;5748;53.102;8.456;2023-11-22T02:48:39;5.10;69.20
11387;DHT22;5748;53.102;8.456;2023-11-22T02:51:06;5.40;69.50
11387;DHT22;5748;53.102;8.456;2023-11-22T02:53:33;5.10;69.20
11387;DHT22;5748;53.102;8.456;2023-11-22T02:56:00;5.00;69.10
11387;DHT22;5748;53.102;8.456;2023-11-22T02:58:29;5.00;69.20
11387;DHT22;5748;53.102;8.456;2023-11-22T03:00:56;5.00;69.20
11387;DHT22;5748;53.102;8.456;2023-11-22T03:03:23;5.00;69.10
11387;DHT22;5748;53.102;8.456;2023-11-22T03:05:50;5.00;69.10
11387;DHT22;5748;53.102;8.456;2023-11-22T03:08:17;5.00;69.10
11387;DHT22;5748;53.102;8.456;2023-11-22T03:10:44;5.00;69.20
11387;DHT22;5748;53.102;8.456;2023-11-22T03:13:11;5.00;69.20
11387;DHT22;5748;53.102;8.456;2023-11-22T03:15:40;5.00;69.30
11387;DHT22;5748;53.102;8.456;2023-11-22T03:18:08;4.90;69.10
11387;DHT22;5748;53.102;8.456;2023-11-22T03:20:36;4.90;69.10
11387;DHT22;5748;53.102;8.456;2023-11-22T03:23:03;4.90;69.20
11387;DHT22;5748;53.102;8.456;2023-11-22T03:25:31;4.90;69.10
11387;DHT22;5748;53.102;8.456;2023-11-22T03:27:58;4.90;69.00
11387;DHT22;5748;53.102;8.456;2023-11-22T03:30:24;4.90;68.90
11387;DHT22;5748;53.102;8.456;2023-11-22T03:32:53;4.80;68.80
11387;DHT22;5748;53.102;8.456;2023-11-22T03:35:20;4.80;68.80
11387;DHT22;5748;53.102;8.456;2023-11-22T03:37:47;4.80;68.70
11387;DHT22;5748;53.102;8.456;2023-11-22T03:40:14;4.70;68.70
11387;DHT22;5748;53.102;8.456;2023-11-22T03:42:41;4.70;68.80
11387;DHT22;5748;53.102;8.456;2023-11-22T03:45:09;5.00;69.00
11387;DHT22;5748;53.102;8.456;2023-11-22T03:47:38;4.70;68.80
11387;DHT22;5748;53.102;8.456;2023-11-22T03:50:07;4.60;68.60
11387;DHT22;5748;53.102;8.456;2023-11-22T03:52:35;4.60;68.70
11387;DHT22;5748;53.102;8.456;2023-11-22T03:55:03;4.60;68.60
11387;DHT22;5748;53.102;8.456;2023-11-22T03:57:30;4.60;68.80
11387;DHT22;5748;53.102;8.456;2023-11-22T03:59:57;4.50;68.60
11387;DHT22;5748;53.102;8.456;2023-11-22T04:02:24;4.50;68.70
11387;DHT22;5748;53.102;8.456;2023-11-22T04:04:53;4.50;68.70
11387;DHT22;5748;53.102;8.456;2023-11-22T04:07:21;4.40;68.60
11387;DHT22;5748;53.102;8.456;2023-11-22T04:09:49;4.40;68.80
11387;DHT22;5748;53.102;8.456;2023-11-22T04:12:15;4.40;68.80
11387;DHT22;5748;53.102;8.456;2023-11-22T04:14:42;4.40;68.90
11387;DHT22;5748;53.102;8.456;2023-11-22T04:17:10;4.40;68.90
11387;DHT22;5748;53.102;8.456;2023-11-22T04:19:37;4.40;69.00
11387;DHT22;5748;53.102;8.456;2023-11-22T04:22:04;4.30;69.00
11387;DHT22;5748;53.102;8.456;2023-11-22T04:24:32;4.30;69.00
11387;DHT22;5748;53.102;8.456;2023-11-22T04:26:59;4.30;68.90
11387;DHT22;5748;53.102;8.456;2023-11-22T04:29:29;4.30;68.90
11387;DHT22;5748;53.102;8.456;2023-11-22T04:31:56;4.30;68.90
11387;DHT22;5748;53.102;8.456;2023-11-22T04:34:23;4.30;68.90
11387;DHT22;5748;53.102;8.456;2023-11-22T04:36:50;4.20;68.70
11387;DHT22;5748;53.102;8.456;2023-11-22T04:39:16;4.20;68.70
11387;DHT22;5748;53.102;8.456;2023-11-22T04:41:45;4.20;68.70
11387;DHT22;5748;53.102;8.456;2023-11-22T04:44:12;4.20;68.70
11387;DHT22;5748;53.102;8.456;2023-11-22T04:46:39;4.20;68.70
11387;DHT22;5748;53.102;8.456;2023-11-22T04:49:06;4.20;68.70
11387;DHT22;5748;53.102;8.456;2023-11-22T04:51:33;4.10;68.60
11387;DHT22;5748;53.102;8.456;2023-11-22T04:54:00;4.10;68.60
11387;DHT22;5748;53.102;8.456;2023-11-22T04:56:28;4.10;68.60
11387;DHT22;5748;53.102;8.456;2023-11-22T04:58:56;4.10;68.60
11387;DHT22;5748;53.102;8.456;2023-11-22T05:01:24;4.10;68.60
11387;DHT22;5748;53.102;8.456;2023-11-22T05:03:51;4.10;68.70
11387;DHT22;5748;53.102;8.456;2023-11-22T05:06:18;4.00;68.60
11387;DHT22;5748;53.102;8.456;2023-11-22T05:08:46;3.90;68.50
11387;DHT22;5748;53.102;8.456;2023-11-22T05:11:13;4.00;68.60
11387;DHT22;5748;53.102;8.456;2023-11-22T05:13:41;4.00;68.60
11387;DHT22;5748;53.102;8.456;2023-11-22T05:16:09;4.00;68.70
11387;DHT22;5748;53.102;8.456;2023-11-22T05:18:36;3.90;68.70
11387;DHT22;5748;53.102;8.456;2023-11-22T05:21:03;3.90;68.80
11387;DHT22;5748;53.102;8.456;2023-11-22T05:23:30;3.90;68.90
11387;DHT22;5748;53.102;8.456;2023-11-22T05:25:58;3.90;68.90
11387;DHT22;5748;53.102;8.456;2023-11-22T05:28:26;3.90;68.90
11387;DHT22;5748;53.102;8.456;2023-11-22T05:30:53;3.90;68.80
11387;DHT22;5748;53.102;8.456;2023-11-22T05:33:21;3.80;68.60
11387;DHT22;5748;53.102;8.456;2023-11-22T05:35:49;3.90;68.60
11387;DHT22;5748;53.102;8.456;2023-11-22T05:38:16;3.80;68.70
11387;DHT22;5748;53.102;8.456;2023-11-22T05:40:42;3.80;68.70
11387;DHT22;5748;53.102;8.456;2023-11-22T05:43:09;3.80;68.70
11387;DHT22;5748;53.102;8.456;2023-11-22T05:45:36;3.80;68.70
11387;DHT22;5748;53.102;8.456;2023-11-22T05:48:03;3.80;69.40
11387;DHT22;5748;53.102;8.456;2023-11-22T05:50:32;3.70;68.60
11387;DHT22;5748;53.102;8.456;2023-11-22T05:52:59;3.70;68.60
11387;DHT22;5748;53.102;8.456;2023-11-22T05:55:26;3.70;68.60
11387;DHT22;5748;53.102;8.456;2023-11-22T05:57:54;3.70;68.60
11387;DHT22;5748;53.102;8.456;2023-11-22T06:00:21;3.70;68.70
11387;DHT22;5748;53.102;8.456;2023-11-22T06:02:48;3.70;68.70
11387;DHT22;5748;53.102;8.456;2023-11-22T06:05:15;3.70;68.70
11387;DHT22;5748;53.102;8.456;2023-11-22T06:07:43;3.70;68.60
11387;DHT22;5748;53.102;8.456;2023-11-22T06:10:10;3.70;68.70
11387;DHT22;5748;53.102;8.456;2023-11-22T06:12:38;3.60;68.70
11387;DHT22;5748;53.102;8.456;2023-11-22T06:15:06;3.60;68.70
11387;DHT22;5748;53.102;8.456;2023-11-22T06:17:34;3.60;68.80
11387;DHT22;5748;53.102;8.456;2023-11-22T06:20:01;3.60;68.80
11387;DHT22;5748;53.102;8.456;2023-11-22T06:22:29;3.60;68.90
11387;DHT22;5748;53.102;8.456;2023-11-22T06:24:57;3.60;69.10
11387;DHT22;5748;53.102;8.456;2023-11-22T06:27:24;3.60;69.00
11387;DHT22;5748;53.102;8.456;2023-11-22T06:29:51;3.60;68.90
11387;DHT22;5748;53.102;8.456;2023-11-22T06:32:18;3.60;69.00
11387;DHT22;5748;53.102;8.456;2023-11-22T06:34:45;3.60;69.00
11387;DHT22;5748;53.102;8.456;2023-11-22T06:37:12;3.60;69.10
11387;DHT22;5748;53.102;8.456;2023-11-22T06:39:39;3.60;69.10
11387;DHT22;5748;53.102;8.456;2023-11-22T06:42:07;3.70;69.30
11387;DHT22;5748;53.102;8.456;2023-11-22T06:44:34;3.70;69.20
11387;DHT22;5748;53.102;8.456;2023-11-22T06:47:01;3.70;69.30
11387;DHT22;5748;53.102;8.456;2023-11-22T06:49:28;3.70;69.40
11387;DHT22;5748;53.102;8.456;2023-11-22T06:51:55;3.70;69.60
11387;DHT22;5748;53.102;8.456;2023-11-22T06:54:22;3.80;69.80
11387;DHT22;5748;53.102;8.456;2023-11-22T06:56:49;3.80;69.90
11387;DHT22;5748;53.102;8.456;2023-11-22T06:59:18;3.80;70.00
11387;DHT22;5748;53.102;8.456;2023-11-22T07:01:45;3.90;70.00
11387;DHT22;5748;53.102;8.456;2023-11-22T07:04:12;3.90;70.10
11387;DHT22;5748;53.102;8.456;2023-11-22T07:06:39;3.90;70.00
11387;DHT22;5748;53.102;8.456;2023-11-22T07:09:08;4.00;70.10
11387;DHT22;5748;53.102;8.456;2023-11-22T07:11:36;4.00;70.10
11387;DHT22;5748;53.102;8.456;2023-11-22T07:14:03;4.10;70.10
11387;DHT22;5748;53.102;8.456;2023-11-22T07:16:32;4.10;70.10
11387;DHT22;5748;53.102;8.456;2023-11-22T07:18:59;4.10;70.70
11387;DHT22;5748;53.102;8.456;2023-11-22T07:21:28;4.20;70.10
11387;DHT22;5748;53.102;8.456;2023-11-22T07:23:55;4.20;70.10
11387;DHT22;5748;53.102;8.456;2023-11-22T07:26:22;4.30;70.10
11387;DHT22;5748;53.102;8.456;2023-11-22T07:28:49;4.30;70.90
11387;DHT22;5748;53.102;8.456;2023-11-22T07:31:17;4.30;70.20
11387;DHT22;5748;53.102;8.456;2023-11-22T07:33:46;4.30;70.20
11387;DHT22;5748;53.102;8.456;2023-11-22T07:36:13;4.40;70.90
11387;DHT22;5748;53.102;8.456;2023-11-22T07:38:41;4.40;70.10
11387;DHT22;5748;53.102;8.456;2023-11-22T07:41:08;4.40;70.20
11387;DHT22;5748;53.102;8.456;2023-11-22T07:43:36;4.50;70.30
11387;DHT22;5748;53.102;8.456;2023-11-22T07:46:05;4.50;70.30
11387;DHT22;5748;53.102;8.456;2023-11-22T07:48:34;4.50;70.40
11387;DHT22;5748;53.102;8.456;2023-11-22T07:51:04;4.60;70.40
11387;DHT22;5748;53.102;8.456;2023-11-22T07:53:32;4.60;70.40
11387;DHT22;5748;53.102;8.456;2023-11-22T07:56:00;4.70;70.50
11387;DHT22;5748;53.102;8.456;2023-11-22T07:58:29;4.70;70.50
11387;DHT22;5748;53.102;8.456;2023-11-22T08:00:57;4.80;70.70
11387;DHT22;5748;53.102;8.456;2023-11-22T08:03:25;4.80;70.70
11387;DHT22;5748;53.102;8.456;2023-11-22T08:05:51;4.90;70.70
11387;DHT22;5748;53.102;8.456;2023-11-22T08:08:22;4.90;70.80
11387;DHT22;5748;53.102;8.456;2023-11-22T08:10:50;4.90;70.80
11387;DHT22;5748;53.102;8.456;2023-11-22T08:13:19;5.00;70.90
11387;DHT22;5748;53.102;8.456;2023-11-22T08:15:48;5.00;70.90
11387;DHT22;5748;53.102;8.456;2023-11-22T08:18:15;5.10;70.90
11387;DHT22;5748;53.102;8.456;2023-11-22T08:20:43;5.10;71.70
11387;DHT22;5748;53.102;8.456;2023-11-22T08:23:10;5.20;71.10
11387;DHT22;5748;53.102;8.456;2023-11-22T08:25:39;5.20;71.00
11387;DHT22;5748;53.102;8.456;2023-11-22T08:28:06;5.30;71.10
11387;DHT22;5748;53.102;8.456;2023-11-22T08:30:34;5.30;71.10
11387;DHT22;5748;53.102;8.456;2023-11-22T08:33:02;5.40;71.30
11387;DHT22;5748;53.102;8.456;2023-11-22T08:35:29;5.40;71.20
11387;DHT22;5748;53.102;8.456;2023-11-22T08:37:55;5.50;71.30
11387;DHT22;5748;53.102;8.456;2023-11-22T08:40:23;5.50;71.30
11387;DHT22;5748;53.102;8.456;2023-11-22T08:42:52;5.60;71.40
11387;DHT22;5748;53.102;8.456;2023-11-22T08:45:20;5.60;71.40
11387;DHT22;5748;53.102;8.456;2023-11-22T08:47:47;5.70;71.50
11387;DHT22;5748;53.102;8.456;2023-11-22T08:50:15;5.70;71.40
11387;DHT22;5748;53.102;8.456;2023-11-22T08:52:42;5.80;71.50
11387;DHT22;5748;53.102;8.456;2023-11-22T08:55:11;5.80;71.50
11387;DHT22;5748;53.102;8.456;2023-11-22T08:57:40;5.90;71.50
11387;DHT22;5748;53.102;8.456;2023-11-22T09:00:09;5.90;71.60
11387;DHT22;5748;53.102;8.456;2023-11-22T09:02:37;5.90;71.60
11387;DHT22;5748;53.102;8.456;2023-11-22T09:05:05;6.00;71.60
11387;DHT22;5748;53.102;8.456;2023-11-22T09:07:33;6.10;71.70
11387;DHT22;5748;53.102;8.456;2023-11-22T09:10:01;6.10;71.70
11387;DHT22;5748;53.102;8.456;2023-11-22T09:12:35;6.20;71.90
11387;DHT22;5748;53.102;8.456;2023-11-22T09:15:05;6.20;71.80
11387;DHT22;5748;53.102;8.456;2023-11-22T09:17:36;6.30;71.90
11387;DHT22;5748;53.102;8.456;2023-11-22T09:20:08;6.30;71.80
11387;DHT22;5748;53.102;8.456;2023-11-22T09:22:41;6.40;71.70
11387;DHT22;5748;53.102;8.456;2023-11-22T09:25:11;6.40;71.50
11387;DHT22;5748;53.102;8.456;2023-11-22T09:27:38;6.50;71.60
11387;DHT22;5748;53.102;8.456;2023-11-22T09:30:08;6.50;71.70
11387;DHT22;5748;53.102;8.456;2023-11-22T09:32:44;6.60;72.00
11387;DHT22;5748;53.102;8.456;2023-11-22T09:35:11;6.60;72.00
11387;DHT22;5748;53.102;8.456;2023-11-22T09:37:39;6.70;72.00
11387;DHT22;5748;53.102;8.456;2023-11-22T09:40:08;6.80;72.00
11387;DHT22;5748;53.102;8.456;2023-11-22T09:42:36;6.80;71.90
11387;DHT22;5748;53.102;8.456;2023-11-22T09:45:04;6.90;71.70
11387;DHT22;5748;53.102;8.456;2023-11-22T09:47:33;6.90;71.80
11387;DHT22;5748;53.102;8.456;2023-11-22T09:50:01;7.00;71.80
11387;DHT22;5748;53.102;8.456;2023-11-22T09:52:33;7.00;71.70
11387;DHT22;5748;53.102;8.456;2023-11-22T09:55:02;7.10;71.90
11387;DHT22;5748;53.102;8.456;2023-11-22T09:57:30;7.10;71.80
11387;DHT22;5748;53.102;8.456;2023-11-22T10:00:01;7.20;71.80
11387;DHT22;5748;53.102;8.456;2023-11-22T10:02:29;7.30;71.70
11387;DHT22;5748;53.102;8.456;2023-11-22T10:04:57;7.40;71.80
11387;DHT22;5748;53.102;8.456;2023-11-22T10:07:24;7.40;71.60
11387;DHT22;5748;53.102;8.456;2023-11-22T10:09:52;7.50;71.70
11387;DHT22;5748;53.102;8.456;2023-11-22T10:12:19;7.50;71.60
11387;DHT22;5748;53.102;8.456;2023-11-22T10:14:47;7.60;71.40
11387;DHT22;5748;53.102;8.456;2023-11-22T10:17:14;7.70;71.30
11387;DHT22;5748;53.102;8.456;2023-11-22T10:19:42;7.70;71.30
11387;DHT22;5748;53.102;8.456;2023-11-22T10:22:10;7.80;71.50
11387;DHT22;5748;53.102;8.456;2023-11-22T10:24:43;7.80;71.50
11387;DHT22;5748;53.102;8.456;2023-11-22T10:27:12;7.90;71.40
11387;DHT22;5748;53.102;8.456;2023-11-22T10:29:39;7.90;71.30
11387;DHT22;5748;53.102;8.456;2023-11-22T10:32:06;8.00;71.30
11387;DHT22;5748;53.102;8.456;2023-11-22T10:34:34;8.10;71.40
11387;DHT22;5748;53.102;8.456;2023-11-22T10:37:02;8.20;71.60
11387;DHT22;5748;53.102;8.456;2023-11-22T10:39:30;8.20;71.30
11387;DHT22;5748;53.102;8.456;2023-11-22T10:41:59;8.20;71.30
11387;DHT22;5748;53.102;8.456;2023-11-22T10:44:26;8.30;71.70
11387;DHT22;5748;53.102;8.456;2023-11-22T10:46:53;8.40;71.30
11387;DHT22;5748;53.102;8.456;2023-11-22T10:49:21;8.40;71.40
11387;DHT22;5748;53.102;8.456;2023-11-22T10:51:52;8.50;72.10
11387;DHT22;5748;53.102;8.456;2023-11-22T10:54:21;8.60;71.30
11387;DHT22;5748;53.102;8.456;2023-11-22T10:56:55;8.60;71.20
11387;DHT22;5748;53.102;8.456;2023-11-22T10:59:26;8.70;70.90
11387;DHT22;5748;53.102;8.456;2023-11-22T11:01:53;8.70;70.90
11387;DHT22;5748;53.102;8.456;2023-11-22T11:04:27;8.80;71.20
11387;DHT22;5748;53.102;8.456;2023-11-22T11:06:57;8.90;71.20
11387;DHT22;5748;53.102;8.456;2023-11-22T11:09:24;9.00;71.30
11387;DHT22;5748;53.102;8.456;2023-11-22T11:11:59;9.00;71.40
11387;DHT22;5748;53.102;8.456;2023-11-22T11:14:28;9.10;71.60
11387;DHT22;5748;53.102;8.456;2023-11-22T11:16:55;9.30;71.70
11387;DHT22;5748;53.102;8.456;2023-11-22T11:19:24;9.40;71.70
11387;DHT22;5748;53.102;8.456;2023-11-22T11:21:51;9.60;72.00
11387;DHT22;5748;53.102;8.456;2023-11-22T11:24:18;9.70;72.00
11387;DHT22;5748;53.102;8.456;2023-11-22T11:26:48;9.90;72.00
11387;DHT22;5748;53.102;8.456;2023-11-22T11:29:31;10.10;71.10
11387;DHT22;5748;53.102;8.456;2023-11-22T11:31:58;10.30;70.30
11387;DHT22;5748;53.102;8.456;2023-11-22T11:34:26;10.60;71.00
11387;DHT22;5748;53.102;8.456;2023-11-22T11:36:55;10.70;70.40
11387;DHT22;5748;53.102;8.456;2023-11-22T11:39:26;10.80;69.90
11387;DHT22;5748;53.102;8.456;2023-11-22T11:42:08;10.90;68.20
11387;DHT22;5748;53.102;8.456;2023-11-22T11:44:37;10.90;67.40
11387;DHT22;5748;53.102;8.456;2023-11-22T11:47:11;10.90;68.00
11387;DHT22;5748;53.102;8.456;2023-11-22T11:49:38;11.00;67.40
11387;DHT22;5748;53.102;8.456;2023-11-22T11:52:05;11.00;67.90
11387;DHT22;5748;53.102;8.456;2023-11-22T11:54:33;11.00;67.50
11387;DHT22;5748;53.102;8.456;2023-11-22T11:57:01;11.00;67.30
11387;DHT22;5748;53.102;8.456;2023-11-22T11:59:28;10.90;66.60
11387;DHT22;5748;53.102;8.456;2023-11-22T12:01:59;11.00;66.30
11387;DHT22;5748;53.102;8.456;2023-11-22T12:04:26;10.90;65.60
11387;DHT22;5748;53.102;8.456;2023-11-22T12:06:53;10.90;66.20
11387;DHT22;5748;53.102;8.456;2023-11-22T12:09:23;10.80;65.00
11387;DHT22;5748;53.102;8.456;2023-11-22T12:11:54;10.70;65.30
11387;DHT22;5748;53.102;8.456;2023-11-22T12:14:22;10.60;65.80
11387;DHT22;5748;53.102;8.456;2023-11-22T12:16:51;10.60;65.00
11387;DHT22;5748;53.102;8.456;2023-11-22T12:19:25;10.50;65.30
11387;DHT22;5748;53.102;8.456;2023-11-22T12:21:53;10.50;64.80
11387;DHT22;5748;53.102;8.456;2023-11-22T12:24:20;10.40;65.60
11387;DHT22;5748;53.102;8.456;2023-11-22T12:26:48;10.40;65.30
11387;DHT22;5748;53.102;8.456;2023-11-22T12:29:15;10.30;65.00
11387;DHT22;5748;53.102;8.456;2023-11-22T12:31:45;10.30;65.10
11387;DHT22;5748;53.102;8.456;2023-11-22T12:34:14;10.20;65.00
11387;DHT22;5748;53.102;8.456;2023-11-22T12:36:45;10.20;65.00
11387;DHT22;5748;53.102;8.456;2023-11-22T12:39:13;10.90;65.50
11387;DHT22;5748;53.102;8.456;2023-11-22T12:41:47;10.10;63.90
11387;DHT22;5748;53.102;8.456;2023-11-22T12:44:16;10.00;64.10
11387;DHT22;5748;53.102;8.456;2023-11-22T12:46:50;9.90;65.20
11387;DHT22;5748;53.102;8.456;2023-11-22T12:49:22;9.90;65.10
11387;DHT22;5748;53.102;8.456;2023-11-22T12:51:52;9.80;64.50
11387;DHT22;5748;53.102;8.456;2023-11-22T12:54:19;9.80;65.10
11387;DHT22;5748;53.102;8.456;2023-11-22T12:56:48;9.70;65.00
11387;DHT22;5748;53.102;8.456;2023-11-22T12:59:20;9.70;64.90
11387;DHT22;5748;53.102;8.456;2023-11-22T13:01:47;9.60;65.20
11387;DHT22;5748;53.102;8.456;2023-11-22T13:04:14;9.60;65.10
11387;DHT22;5748;53.102;8.456;2023-11-22T13:06:41;9.50;64.90
11387;DHT22;5748;53.102;8.456;2023-11-22T13:09:10;9.80;65.40
11387;DHT22;5748;53.102;8.456;2023-11-22T13:11:41;9.50;65.00
11387;DHT22;5748;53.102;8.456;2023-11-22T13:14:08;9.50;65.20
11387;DHT22;5748;53.102;8.456;2023-11-22T13:16:36;9.40;64.80
11387;DHT22;5748;53.102;8.456;2023-11-22T13:19:04;9.40;65.30
11387;DHT22;5748;53.102;8.456;2023-11-22T13:21:32;9.40;64.80
11387;DHT22;5748;53.102;8.456;2023-11-22T13:23:59;9.40;64.90
11387;DHT22;5748;53.102;8.456;2023-11-22T13:26:27;9.30;64.90
11387;DHT22;5748;53.102;8.456;2023-11-22T13:28:54;9.30;64.60
11387;DHT22;5748;53.102;8.456;2023-11-22T13:31:21;9.30;64.90
11387;DHT22;5748;53.102;8.456;2023-11-22T13:33:49;9.20;64.60
11387;DHT22;5748;53.102;8.456;2023-11-22T13:36:16;9.20;64.60
11387;DHT22;5748;53.102;8.456;2023-11-22T13:38:43;9.30;64.60
11387;DHT22;5748;53.102;8.456;2023-11-22T13:41:10;9.10;63.80
11387;DHT22;5748;53.102;8.456;2023-11-22T13:43:38;9.00;64.30
11387;DHT22;5748;53.102;8.456;2023-11-22T13:46:07;8.90;64.50
11387;DHT22;5748;53.102;8.456;2023-11-22T13:48:35;9.30;64.80
11387;DHT22;5748;53.102;8.456;2023-11-22T13:51:02;8.90;64.40
11387;DHT22;5748;53.102;8.456;2023-11-22T13:53:29;8.80;64.50
11387;DHT22;5748;53.102;8.456;2023-11-22T13:56:00;8.80;64.20
11387;DHT22;5748;53.102;8.456;2023-11-22T13:58:33;8.80;64.40
11387;DHT22;5748;53.102;8.456;2023-11-22T14:01:01;8.80;64.20
11387;DHT22;5748;53.102;8.456;2023-11-22T14:03:31;8.70;64.30
11387;DHT22;5748;53.102;8.456;2023-11-22T14:05:58;8.70;64.10
11387;DHT22;5748;53.102;8.456;2023-11-22T14:08:26;8.70;64.40
11387;DHT22;5748;53.102;8.456;2023-11-22T14:10:52;8.70;64.70
11387;DHT22;5748;53.102;8.456;2023-11-22T14:13:19;8.60;64.40
11387;DHT22;5748;53.102;8.456;2023-11-22T14:15:47;8.60;64.50
11387;DHT22;5748;53.102;8.456;2023-11-22T14:18:15;8.60;64.60
11387;DHT22;5748;53.102;8.456;2023-11-22T14:20:42;8.60;63.50
11387;DHT22;5748;53.102;8.456;2023-11-22T14:23:09;8.50;63.30
11387;DHT22;5748;53.102;8.456;2023-11-22T14:25:36;8.50;64.60
11387;DHT22;5748;53.102;8.456;2023-11-22T14:28:03;8.50;64.00
11387;DHT22;5748;53.102;8.456;2023-11-22T14:30:30;8.50;64.00
11387;DHT22;5748;53.102;8.456;2023-11-22T14:33:01;8.40;64.00
11387;DHT22;5748;53.102;8.456;2023-11-22T14:35:33;8.40;64.30
11387;DHT22;5748;53.102;8.456;2023-11-22T14:38:01;8.40;64.20
11387;DHT22;5748;53.102;8.456;2023-11-22T14:40:29;8.40;64.20
11387;DHT22;5748;53.102;8.456;2023-11-22T14:42:56;8.40;64.10
11387;DHT22;5748;53.102;8.456;2023-11-22T14:45:23;8.30;64.20
11387;DHT22;5748;53.102;8.456;2023-11-22T14:47:52;8.40;64.30
11387;DHT22;5748;53.102;8.456;2023-11-22T14:50:19;8.30;64.30
11387;DHT22;5748;53.102;8.456;2023-11-22T14:52:47;8.30;64.30
11387;DHT22;5748;53.102;8.456;2023-11-22T14:55:15;8.30;64.40
11387;DHT22;5748;53.102;8.456;2023-11-22T14:57:44;8.30;64.40
11387;DHT22;5748;53.102;8.456;2023-11-22T15:00:12;8.30;64.50
11387;DHT22;5748;53.102;8.456;2023-11-22T15:02:39;8.30;64.60
11387;DHT22;5748;53.102;8.456;2023-11-22T15:05:08;8.30;64.50
11387;DHT22;5748;53.102;8.456;2023-11-22T15:07:35;8.30;64.50
11387;DHT22;5748;53.102;8.456;2023-11-22T15:10:05;8.30;64.50
11387;DHT22;5748;53.102;8.456;2023-11-22T15:12:33;8.30;64.50
11387;DHT22;5748;53.102;8.456;2023-11-22T15:15:00;8.20;64.50
11387;DHT22;5748;53.102;8.456;2023-11-22T15:17:28;8.20;64.40
11387;DHT22;5748;53.102;8.456;2023-11-22T15:19:56;8.30;64.60
11387;DHT22;5748;53.102;8.456;2023-11-22T15:22:23;8.20;64.30
11387;DHT22;5748;53.102;8.456;2023-11-22T15:24:49;8.20;64.20
11387;DHT22;5748;53.102;8.456;2023-11-22T15:27:19;8.20;64.40
11387;DHT22;5748;53.102;8.456;2023-11-22T15:29:46;8.20;64.50
11387;DHT22;5748;53.102;8.456;2023-11-22T15:32:13;8.20;64.50
11387;DHT22;5748;53.102;8.456;2023-11-22T15:34:40;8.20;64.30
11387;DHT22;5748;53.102;8.456;2023-11-22T15:37:07;8.20;64.20
11387;DHT22;5748;53.102;8.456;2023-11-22T15:39:36;8.10;64.20
11387;DHT22;5748;53.102;8.456;2023-11-22T15:42:03;8.10;64.30
11387;DHT22;5748;53.102;8.456;2023-11-22T15:44:32;8.10;64.10
11387;DHT22;5748;53.102;8.456;2023-11-22T15:46:59;8.10;64.10
11387;DHT22;5748;53.102;8.456;2023-11-22T15:49:30;8.10;64.30
11387;DHT22;5748;53.102;8.456;2023-11-22T15:51:57;8.10;64.20
11387;DHT22;5748;53.102;8.456;2023-11-22T15:54:23;8.10;64.00
11387;DHT22;5748;53.102;8.456;2023-11-22T15:56:50;8.10;64.20
11387;DHT22;5748;53.102;8.456;2023-11-22T15:59:17;8.10;64.30
11387;DHT22;5748;53.102;8.456;2023-11-22T16:01:45;9.50;65.70
11387;DHT22;5748;53.102;8.456;2023-11-22T16:04:12;8.10;64.20